createdAt,value
2017-07-09T00:00:44.409Z,29.60
2017-07-09T00:03:14.004Z,29.50
2017-07-09T00:05:43.753Z,29.50
2017-07-09T00:08:13.236Z,29.50
2017-07-09T00:10:42.485Z,29.50
2017-07-09T00:13:11.791Z,29.60
2017-07-09T00:15:41.202Z,29.50
2017-07-09T00:18:10.736Z,29.60
2017-07-09T00:20:40.048Z,29.70
2017-07-09T00:23:09.193Z,29.60
2017-07-09T00:25:39.437Z,29.40
2017-07-09T00:28:08.744Z,29.30
2017-07-09T00:30:38.177Z,29.50
2017-07-09T00:33:07.641Z,29.60
2017-07-09T00:35:36.855Z,29.50
2017-07-09T00:38:06.212Z,29.70
2017-07-09T00:40:35.218Z,29.70
2017-07-09T00:43:05.249Z,29.40
2017-07-09T00:45:34.715Z,29.40
2017-07-09T00:48:04.118Z,29.40
2017-07-09T00:50:36.238Z,29.40
2017-07-09T00:53:05.638Z,29.40
2017-07-09T00:55:34.856Z,29.50
2017-07-09T00:58:04.411Z,29.60
2017-07-09T01:00:34.077Z,29.50
2017-07-09T01:03:04.172Z,29.50
2017-07-09T01:05:33.448Z,29.40
2017-07-09T01:08:03.714Z,29.30
2017-07-09T01:10:32.873Z,29.30
2017-07-09T01:13:02.595Z,29.30
2017-07-09T01:15:31.659Z,29.30
2017-07-09T01:18:00.839Z,29.20
2017-07-09T01:20:30.009Z,29.10
2017-07-09T01:22:59.676Z,29.10
2017-07-09T01:25:28.839Z,29.10
2017-07-09T01:27:58.154Z,29.00
2017-07-09T01:30:27.571Z,28.80
2017-07-09T01:32:56.780Z,28.70
2017-07-09T01:35:25.927Z,28.80
2017-07-09T01:37:56.664Z,28.80
2017-07-09T01:40:26.089Z,28.80
2017-07-09T01:42:55.195Z,28.70
2017-07-09T01:45:24.507Z,28.60
2017-07-09T01:47:53.775Z,28.70
2017-07-09T01:50:23.214Z,28.80
2017-07-09T01:52:52.829Z,28.60
2017-07-09T01:55:22.277Z,28.60
2017-07-09T01:57:51.325Z,28.50
2017-07-09T02:00:20.774Z,28.50
2017-07-09T02:02:50.304Z,28.40
2017-07-09T02:05:20.502Z,28.30
2017-07-09T02:07:50.268Z,28.20
2017-07-09T02:10:20.440Z,28.10
2017-07-09T02:12:49.935Z,28.10
2017-07-09T02:15:26.578Z,28.00
2017-07-09T02:17:56.013Z,27.90
2017-07-09T02:20:25.240Z,27.90
2017-07-09T02:22:54.671Z,27.90
2017-07-09T02:25:24.833Z,27.90
2017-07-09T02:27:54.120Z,27.80
2017-07-09T02:30:23.630Z,27.90
2017-07-09T02:32:52.850Z,27.80
2017-07-09T02:35:22.375Z,27.70
2017-07-09T02:37:52.758Z,27.60
2017-07-09T02:40:22.327Z,27.50
2017-07-09T02:42:51.037Z,27.50
2017-07-09T02:45:20.138Z,27.40
2017-07-09T02:47:49.383Z,27.50
2017-07-09T02:50:19.001Z,27.50
2017-07-09T02:52:48.255Z,27.40
2017-07-09T02:55:17.544Z,27.30
2017-07-09T02:57:46.722Z,27.30
2017-07-09T03:00:15.589Z,27.30
2017-07-09T03:02:44.319Z,27.30
2017-07-09T03:05:14.209Z,27.20
2017-07-09T03:07:44.267Z,27.10
2017-07-09T03:10:13.396Z,27.00
2017-07-09T03:12:42.724Z,26.90
2017-07-09T03:15:11.895Z,26.80
2017-07-09T03:17:40.909Z,26.70
2017-07-09T03:20:10.090Z,26.60
2017-07-09T03:22:39.432Z,26.60
2017-07-09T03:25:08.799Z,26.50
2017-07-09T03:27:37.988Z,26.50
2017-07-09T03:30:07.355Z,26.50
2017-07-09T03:32:36.545Z,26.40
2017-07-09T03:35:05.321Z,26.40
2017-07-09T03:37:34.518Z,26.30
2017-07-09T03:40:03.183Z,26.20
2017-07-09T03:42:32.101Z,26.00
2017-07-09T03:45:01.764Z,25.90
2017-07-09T03:47:31.441Z,25.80
2017-07-09T03:50:00.744Z,25.70
2017-07-09T03:52:31.169Z,25.60
2017-07-09T03:55:00.550Z,25.50
2017-07-09T03:57:29.746Z,25.40
2017-07-09T03:59:58.867Z,25.30
2017-07-09T04:02:27.541Z,25.20
2017-07-09T04:04:56.440Z,25.10
2017-07-09T04:07:26.003Z,25.00
2017-07-09T04:09:56.129Z,24.90
2017-07-09T04:12:26.331Z,24.70
2017-07-09T04:15:02.571Z,24.70
2017-07-09T04:17:31.678Z,24.60
2017-07-09T04:20:00.994Z,24.50
2017-07-09T04:22:30.272Z,24.30
2017-07-09T04:24:59.059Z,24.30
2017-07-09T04:30:02.403Z,24.20
2017-07-09T04:32:31.576Z,24.10
2017-07-09T04:35:00.910Z,24.00
2017-07-09T04:37:30.146Z,23.80
2017-07-09T04:39:59.488Z,23.70
2017-07-09T04:42:29.815Z,23.60
2017-07-09T04:44:59.370Z,23.50
2017-07-09T04:47:28.801Z,23.40
2017-07-09T04:49:58.091Z,23.30
2017-07-09T04:52:27.269Z,23.20
2017-07-09T04:54:56.478Z,23.10
2017-07-09T04:57:25.790Z,23.00
2017-07-09T04:59:55.056Z,23.00
2017-07-09T05:02:24.319Z,22.80
2017-07-09T05:04:53.499Z,22.70
2017-07-09T05:07:23.042Z,22.60
2017-07-09T05:09:52.224Z,22.60
2017-07-09T05:12:22.492Z,22.40
2017-07-09T05:14:54.295Z,22.40
2017-07-09T05:17:23.633Z,22.30
2017-07-09T05:19:52.885Z,22.20
2017-07-09T05:22:22.405Z,22.20
2017-07-09T05:24:51.782Z,22.10
2017-07-09T05:27:20.957Z,22.00
2017-07-09T05:29:50.166Z,22.00
2017-07-09T05:32:19.620Z,22.00
2017-07-09T05:34:49.254Z,21.90
2017-07-09T05:37:18.406Z,21.90
2017-07-09T05:39:47.744Z,21.80
2017-07-09T05:42:16.923Z,21.70
2017-07-09T05:44:46.133Z,21.60
2017-07-09T05:47:16.240Z,21.30
2017-07-09T05:49:45.316Z,21.30
2017-07-09T05:52:14.542Z,21.20
2017-07-09T05:54:43.612Z,21.30
2017-07-09T05:57:12.819Z,21.20
2017-07-09T05:59:42.129Z,21.20
2017-07-09T06:02:11.491Z,21.10
2017-07-09T06:04:40.888Z,21.10
2017-07-09T06:07:10.003Z,21.10
2017-07-09T06:09:40.749Z,21.00
2017-07-09T06:12:10.082Z,20.90
2017-07-09T06:14:41.308Z,20.90
2017-07-09T06:17:10.661Z,20.80
2017-07-09T06:19:39.889Z,20.70
2017-07-09T06:22:08.998Z,20.70
2017-07-09T06:24:38.489Z,20.60
2017-07-09T06:27:08.102Z,20.60
2017-07-09T06:29:37.500Z,20.60
2017-07-09T06:32:06.757Z,20.60
2017-07-09T06:34:36.072Z,20.50
2017-07-09T06:37:05.334Z,20.30
2017-07-09T06:39:34.664Z,20.20
2017-07-09T06:42:03.895Z,20.10
2017-07-09T06:44:33.002Z,20.10
2017-07-09T06:47:02.497Z,20.00
2017-07-09T06:49:32.336Z,20.00
2017-07-09T06:52:01.343Z,20.00
2017-07-09T06:54:30.609Z,20.00
2017-07-09T06:56:59.889Z,19.90
2017-07-09T06:59:28.980Z,19.80
2017-07-09T07:01:58.092Z,19.80
2017-07-09T07:04:27.753Z,19.70
2017-07-09T07:06:57.992Z,19.60
2017-07-09T07:09:28.135Z,19.60
2017-07-09T07:11:57.491Z,19.50
2017-07-09T07:14:27.580Z,19.40
2017-07-09T07:16:57.775Z,19.40
2017-07-09T07:19:26.577Z,19.30
2017-07-09T07:21:55.317Z,19.30
2017-07-09T07:24:24.025Z,19.20
2017-07-09T07:26:53.324Z,19.10
2017-07-09T07:29:22.819Z,19.10
2017-07-09T07:31:52.227Z,19.10
2017-07-09T07:34:21.405Z,19.10
2017-07-09T07:36:50.943Z,19.10
2017-07-09T07:39:20.493Z,19.00
2017-07-09T07:41:49.547Z,19.00
2017-07-09T07:44:19.038Z,18.90
2017-07-09T07:46:48.253Z,18.90
2017-07-09T07:49:17.574Z,18.90
2017-07-09T07:51:46.759Z,18.80
2017-07-09T07:54:16.139Z,18.80
2017-07-09T07:56:45.410Z,18.80
2017-07-09T07:59:14.879Z,18.70
2017-07-09T08:01:44.153Z,18.70
2017-07-09T08:04:13.248Z,18.60
2017-07-09T08:06:42.768Z,18.60
2017-07-09T08:09:11.841Z,18.60
2017-07-09T08:11:41.069Z,18.60
2017-07-09T08:14:10.474Z,18.50
2017-07-09T08:16:39.924Z,18.50
2017-07-09T08:19:10.755Z,18.40
2017-07-09T08:21:40.023Z,18.40
2017-07-09T08:24:09.421Z,18.50
2017-07-09T08:26:38.708Z,18.40
2017-07-09T08:29:08.067Z,18.30
2017-07-09T08:31:37.661Z,18.30
2017-07-09T08:34:07.105Z,18.20
2017-07-09T08:36:36.564Z,18.10
2017-07-09T08:39:05.947Z,18.00
2017-07-09T08:41:35.127Z,18.00
2017-07-09T08:44:04.193Z,17.90
2017-07-09T08:46:33.776Z,17.90
2017-07-09T08:49:03.078Z,17.90
2017-07-09T08:51:32.245Z,17.80
2017-07-09T08:54:01.587Z,17.70
2017-07-09T08:56:31.836Z,17.70
2017-07-09T08:59:00.946Z,17.70
2017-07-09T09:01:30.322Z,17.60
2017-07-09T09:03:59.700Z,17.60
2017-07-09T09:06:28.970Z,17.50
2017-07-09T09:08:58.362Z,17.50
2017-07-09T09:11:27.460Z,17.50
2017-07-09T09:13:56.875Z,17.50
2017-07-09T09:16:26.152Z,17.50
2017-07-09T09:18:55.383Z,17.50
2017-07-09T09:21:25.659Z,17.40
2017-07-09T09:23:54.952Z,17.40
2017-07-09T09:26:24.312Z,17.30
2017-07-09T09:28:53.731Z,17.30
2017-07-09T09:31:22.991Z,17.30
2017-07-09T09:33:52.331Z,17.30
2017-07-09T09:36:21.668Z,17.20
2017-07-09T09:38:51.269Z,17.20
2017-07-09T09:41:20.594Z,17.10
2017-07-09T09:43:49.883Z,17.10
2017-07-09T09:46:19.016Z,17.10
2017-07-09T09:48:48.334Z,17.00
2017-07-09T09:51:17.608Z,16.90
2017-07-09T09:53:47.067Z,16.80
2017-07-09T09:56:16.360Z,16.70
2017-07-09T09:58:45.570Z,16.60
2017-07-09T10:01:14.697Z,16.50
2017-07-09T10:03:43.944Z,16.40
2017-07-09T10:06:13.127Z,16.30
2017-07-09T10:08:42.352Z,16.30
2017-07-09T10:11:11.648Z,16.30
2017-07-09T10:13:40.702Z,16.10
2017-07-09T10:16:10.146Z,16.00
2017-07-09T10:18:39.239Z,16.00
2017-07-09T10:21:08.483Z,15.90
2017-07-09T10:23:39.111Z,15.90
2017-07-09T10:26:08.498Z,15.80
2017-07-09T10:28:37.563Z,15.80
2017-07-09T10:31:06.771Z,15.70
2017-07-09T10:33:36.094Z,15.60
2017-07-09T10:36:05.357Z,15.60
2017-07-09T10:38:34.712Z,15.60
2017-07-09T10:41:03.951Z,15.60
2017-07-09T10:43:33.050Z,15.50
2017-07-09T10:46:02.184Z,15.50
2017-07-09T10:48:31.214Z,15.40
2017-07-09T10:51:00.610Z,15.40
2017-07-09T10:53:29.912Z,15.30
2017-07-09T10:55:59.423Z,15.30
2017-07-09T10:58:28.823Z,15.20
2017-07-09T11:01:05.482Z,15.10
2017-07-09T11:03:34.658Z,15.00
2017-07-09T11:06:03.879Z,15.00
2017-07-09T11:08:33.372Z,14.90
2017-07-09T11:11:02.757Z,14.90
2017-07-09T11:13:32.051Z,14.90
2017-07-09T11:16:01.397Z,14.90
2017-07-09T11:18:30.844Z,14.80
2017-07-09T11:21:00.710Z,14.70
2017-07-09T11:23:30.143Z,14.70
2017-07-09T11:26:00.440Z,14.60
2017-07-09T11:28:29.638Z,14.60
2017-07-09T11:30:58.918Z,14.50
2017-07-09T11:33:28.349Z,14.50
2017-07-09T11:35:57.802Z,14.50
2017-07-09T11:38:27.856Z,14.50
2017-07-09T11:40:56.959Z,14.40
2017-07-09T11:43:26.330Z,14.30
2017-07-09T11:45:55.653Z,14.20
2017-07-09T11:48:24.819Z,14.20
2017-07-09T11:50:54.338Z,14.20
2017-07-09T11:53:23.939Z,14.10
2017-07-09T11:55:53.367Z,14.00
2017-07-09T11:58:22.853Z,14.10
2017-07-09T12:00:52.376Z,14.00
2017-07-09T12:03:21.620Z,14.00
2017-07-09T12:05:50.742Z,13.90
2017-07-09T12:08:20.060Z,14.00
2017-07-09T12:10:49.177Z,13.90
2017-07-09T12:13:19.427Z,13.90
2017-07-09T12:15:48.674Z,13.80
2017-07-09T12:18:18.230Z,13.80
2017-07-09T12:20:47.761Z,13.80
2017-07-09T12:23:17.062Z,13.80
2017-07-09T12:25:46.239Z,13.80
2017-07-09T12:28:15.971Z,13.70
2017-07-09T12:30:45.078Z,13.60
2017-07-09T12:33:14.297Z,13.60
2017-07-09T12:35:43.873Z,13.60
2017-07-09T12:38:13.203Z,13.60
2017-07-09T12:40:42.535Z,13.60
2017-07-09T12:43:11.857Z,13.60
2017-07-09T12:45:41.032Z,13.60
2017-07-09T12:48:10.679Z,13.50
2017-07-09T12:50:39.966Z,13.50
2017-07-09T12:53:08.984Z,13.50
2017-07-09T12:55:38.314Z,13.50
2017-07-09T12:58:07.713Z,13.50
2017-07-09T13:00:36.952Z,13.40
2017-07-09T13:03:06.307Z,13.40
2017-07-09T13:05:35.537Z,13.50
2017-07-09T13:08:04.882Z,13.50
2017-07-09T13:10:33.967Z,13.60
2017-07-09T13:13:03.286Z,13.60
2017-07-09T13:15:33.614Z,13.70
2017-07-09T13:18:03.076Z,13.70
2017-07-09T13:20:32.495Z,13.80
2017-07-09T13:23:01.526Z,13.80
2017-07-09T13:25:30.651Z,13.90
2017-07-09T13:27:59.959Z,14.10
2017-07-09T13:30:30.171Z,14.10
2017-07-09T13:32:59.346Z,14.20
2017-07-09T13:35:28.794Z,14.30
2017-07-09T13:37:58.086Z,14.40
2017-07-09T13:40:27.194Z,14.50
2017-07-09T13:42:56.213Z,14.60
2017-07-09T13:45:25.705Z,14.60
2017-07-09T13:47:54.968Z,14.80
2017-07-09T13:50:24.174Z,14.90
2017-07-09T13:52:53.598Z,15.00
2017-07-09T13:55:23.103Z,15.00
2017-07-09T13:57:52.374Z,15.10
2017-07-09T14:00:22.017Z,15.10
2017-07-09T14:02:51.333Z,15.30
2017-07-09T14:05:20.678Z,15.40
2017-07-09T14:07:49.968Z,15.40
2017-07-09T14:10:19.531Z,15.40
2017-07-09T14:12:48.981Z,15.60
2017-07-09T14:15:18.429Z,15.70
2017-07-09T14:17:47.784Z,16.00
2017-07-09T14:20:17.097Z,16.10
2017-07-09T14:22:46.578Z,16.20
2017-07-09T14:25:15.973Z,16.20
2017-07-09T14:27:45.586Z,16.20
2017-07-09T14:30:14.795Z,16.30
2017-07-09T14:32:44.932Z,16.30
2017-07-09T14:35:14.515Z,16.30
2017-07-09T14:37:43.682Z,16.30
2017-07-09T14:40:13.006Z,16.40
2017-07-09T14:42:42.446Z,16.40
2017-07-09T14:45:11.830Z,16.40
2017-07-09T14:47:41.360Z,16.80
2017-07-09T14:50:10.604Z,17.30
2017-07-09T14:52:39.914Z,17.50
2017-07-09T14:55:10.322Z,18.00
2017-07-09T14:57:39.785Z,18.00
2017-07-09T15:00:08.975Z,18.40
2017-07-09T15:02:38.590Z,18.70
2017-07-09T15:05:07.871Z,18.90
2017-07-09T15:07:37.095Z,19.50
2017-07-09T15:10:07.103Z,20.40
2017-07-09T15:12:36.553Z,22.10
2017-07-09T15:15:05.663Z,24.00
2017-07-09T15:17:34.960Z,25.70
2017-07-09T15:20:04.083Z,26.80
2017-07-09T15:22:33.304Z,27.20
2017-07-09T15:25:02.514Z,28.70
2017-07-09T15:27:31.698Z,29.00
2017-07-09T15:30:01.172Z,30.10
2017-07-09T15:32:30.772Z,31.30
2017-07-09T15:35:00.934Z,33.00
2017-07-09T15:37:30.489Z,33.50
2017-07-09T15:39:59.542Z,32.10
2017-07-09T15:42:28.657Z,32.60
2017-07-09T15:44:57.900Z,33.40
2017-07-09T15:47:27.098Z,33.40
2017-07-09T15:49:56.588Z,33.30
2017-07-09T15:52:26.798Z,34.90
2017-07-09T15:54:56.088Z,34.80
2017-07-09T16:24:07.261Z,34.70
2017-07-09T16:26:36.480Z,38.60
2017-07-09T16:29:06.081Z,38.50
2017-07-09T16:31:35.485Z,37.90
2017-07-09T16:34:04.479Z,38.50
2017-07-09T16:36:33.684Z,39.10
2017-07-09T16:39:02.983Z,39.90
2017-07-09T16:41:32.516Z,40.10
2017-07-09T16:44:01.788Z,40.50
2017-07-09T16:46:31.991Z,38.70
2017-07-09T16:49:02.024Z,39.00
2017-07-09T16:51:31.397Z,38.90
2017-07-09T16:54:00.886Z,39.00
2017-07-09T16:56:29.919Z,41.20
2017-07-09T16:58:59.369Z,41.90
2017-07-09T17:01:29.023Z,42.80
2017-07-09T17:03:59.104Z,40.90
2017-07-09T17:06:28.395Z,40.90
2017-07-09T17:08:57.924Z,41.80
2017-07-09T17:11:27.150Z,42.30
2017-07-09T17:13:57.110Z,40.50
2017-07-09T17:16:26.673Z,40.40
2017-07-09T17:18:57.189Z,39.40
2017-07-09T17:21:26.534Z,39.30
2017-07-09T17:23:55.899Z,39.90
2017-07-09T17:26:26.144Z,38.50
2017-07-09T17:28:55.355Z,39.30
2017-07-09T17:31:24.414Z,39.40
2017-07-09T17:33:53.546Z,40.30
2017-07-09T17:36:23.041Z,38.90
2017-07-09T17:38:52.344Z,39.60
2017-07-09T17:41:21.851Z,38.90
2017-07-09T17:43:51.038Z,40.40
2017-07-09T17:46:20.241Z,39.60
2017-07-09T17:48:49.881Z,38.40
2017-07-09T17:51:19.017Z,39.30
2017-07-09T17:53:48.274Z,39.40
2017-07-09T17:56:18.907Z,39.40
2017-07-09T17:58:48.287Z,39.50
2017-07-09T18:01:17.755Z,38.90
2017-07-09T18:03:48.005Z,38.90
2017-07-09T18:06:17.115Z,38.90
2017-07-09T18:08:46.472Z,39.30
2017-07-09T18:11:15.949Z,38.50
2017-07-09T18:13:45.016Z,38.50
2017-07-09T18:16:14.485Z,39.50
2017-07-09T18:18:44.592Z,39.70
2017-07-09T18:21:13.796Z,39.70
2017-07-09T18:23:42.961Z,39.50
2017-07-09T18:26:12.335Z,40.90
2017-07-09T18:28:42.312Z,40.60
2017-07-09T18:31:11.465Z,40.10
2017-07-09T18:33:40.773Z,40.40
2017-07-09T18:36:10.012Z,39.60
2017-07-09T18:38:39.026Z,39.80
2017-07-09T18:41:08.306Z,38.90
2017-07-09T18:43:37.595Z,39.70
2017-07-09T18:46:06.842Z,39.90
2017-07-09T18:48:36.374Z,40.60
2017-07-09T18:51:05.503Z,41.70
2017-07-09T18:53:34.842Z,40.90
2017-07-09T18:56:03.978Z,38.30
2017-07-09T18:58:33.123Z,38.70
2017-07-09T19:01:02.173Z,38.10
2017-07-09T19:03:31.473Z,38.50
2017-07-09T19:06:00.836Z,37.90
2017-07-09T19:08:30.372Z,36.70
2017-07-09T19:10:59.993Z,36.50
2017-07-09T19:13:29.327Z,37.30
2017-07-09T19:15:59.684Z,37.60
2017-07-09T19:18:29.198Z,37.60
2017-07-09T19:20:58.546Z,37.40
2017-07-09T19:23:27.640Z,37.10
2017-07-09T19:25:56.963Z,36.50
2017-07-09T19:28:26.365Z,35.80
2017-07-09T19:30:57.002Z,36.50
2017-07-09T19:33:26.311Z,36.50
2017-07-09T19:35:55.809Z,36.80
2017-07-09T19:38:25.940Z,35.60
2017-07-09T19:40:54.781Z,35.50
2017-07-09T19:43:24.012Z,35.10
2017-07-09T19:45:54.194Z,35.80
2017-07-09T19:48:24.279Z,35.80
2017-07-09T19:50:54.028Z,35.00
2017-07-09T19:53:23.376Z,34.60
2017-07-09T19:55:52.588Z,34.20
2017-07-09T19:58:22.097Z,34.40
2017-07-09T20:00:51.571Z,33.10
2017-07-09T20:03:21.612Z,31.90
2017-07-09T20:05:51.056Z,31.90
2017-07-09T20:08:20.474Z,31.20
2017-07-09T20:10:50.281Z,30.50
2017-07-09T20:13:21.375Z,30.20
2017-07-09T20:15:50.676Z,29.80
2017-07-09T20:18:20.184Z,29.50
2017-07-09T20:20:49.572Z,29.40
2017-07-09T20:23:18.946Z,29.30
2017-07-09T20:25:48.109Z,29.40
2017-07-09T20:28:17.588Z,29.60
2017-07-09T20:30:46.497Z,29.30
2017-07-09T20:33:17.234Z,29.20
2017-07-09T20:35:46.529Z,29.10
2017-07-09T20:38:15.963Z,28.70
2017-07-09T20:40:45.466Z,28.40
2017-07-09T20:43:14.999Z,28.30
2017-07-09T20:45:44.671Z,27.90
2017-07-09T20:48:13.491Z,27.80
2017-07-09T20:50:42.676Z,27.90
2017-07-09T20:53:11.968Z,27.70
2017-07-09T20:55:41.243Z,27.80
2017-07-09T20:58:10.436Z,28.10
2017-07-09T21:00:39.688Z,28.20
2017-07-09T21:03:08.920Z,28.40
2017-07-09T21:05:38.291Z,28.30
2017-07-09T21:08:08.464Z,28.60
2017-07-09T21:10:37.983Z,28.60
2017-07-09T21:13:07.093Z,28.20
2017-07-09T21:15:36.667Z,27.90
2017-07-09T21:18:05.912Z,27.80
2017-07-09T21:20:35.106Z,27.90
2017-07-09T21:23:04.396Z,27.90
2017-07-09T21:25:33.764Z,28.00
2017-07-09T21:28:03.054Z,28.10
2017-07-09T21:30:32.562Z,28.20
2017-07-09T21:33:01.797Z,28.10
2017-07-09T21:35:31.706Z,28.00
2017-07-09T21:38:01.040Z,27.80
2017-07-09T21:40:30.278Z,27.90
2017-07-09T21:42:59.383Z,27.90
2017-07-09T21:45:28.679Z,28.10
2017-07-09T21:47:57.926Z,27.80
2017-07-09T21:50:27.091Z,27.80
2017-07-09T21:52:56.731Z,27.80
2017-07-09T21:55:26.435Z,27.90
2017-07-09T21:57:55.822Z,28.00
2017-07-09T22:00:25.201Z,27.90
2017-07-09T22:02:54.576Z,27.70
2017-07-09T22:05:23.904Z,27.60
2017-07-09T22:07:53.542Z,27.60
2017-07-09T22:10:23.044Z,27.50
2017-07-09T22:12:52.341Z,27.60
2017-07-09T22:15:21.611Z,27.60
2017-07-09T22:17:51.036Z,27.80
2017-07-09T22:20:20.339Z,27.50
2017-07-09T22:22:50.029Z,27.60
2017-07-09T22:25:19.500Z,27.70
2017-07-09T22:27:48.971Z,27.80
2017-07-09T22:30:18.589Z,27.90
2017-07-09T22:32:47.979Z,28.00
2017-07-09T22:35:17.178Z,28.00
2017-07-09T22:37:47.980Z,27.90
2017-07-09T22:40:17.560Z,27.90
2017-07-09T22:42:47.890Z,28.10
2017-07-09T22:45:17.611Z,28.10
2017-07-09T22:47:47.108Z,28.00
2017-07-09T22:50:16.416Z,28.10
2017-07-09T22:52:45.689Z,27.90
2017-07-09T22:55:15.279Z,28.00
2017-07-09T22:57:44.382Z,28.10
2017-07-09T23:00:13.830Z,28.20
2017-07-09T23:02:43.057Z,28.10
2017-07-09T23:05:12.488Z,28.20
2017-07-09T23:07:41.737Z,28.00
2017-07-09T23:10:11.057Z,28.00
2017-07-09T23:12:40.477Z,27.90
2017-07-09T23:15:09.909Z,28.00
2017-07-09T23:17:40.136Z,28.30
2017-07-09T23:20:10.410Z,28.10
2017-07-09T23:22:39.497Z,28.10
2017-07-09T23:25:08.803Z,28.10
2017-07-09T23:27:38.056Z,28.10
2017-07-09T23:30:07.245Z,27.90
2017-07-09T23:32:36.473Z,27.90
2017-07-09T23:35:05.801Z,28.00
2017-07-09T23:37:35.107Z,28.20
2017-07-09T23:40:05.174Z,28.30
2017-07-09T23:42:34.592Z,28.20
2017-07-09T23:45:04.015Z,28.20
2017-07-09T23:47:33.109Z,28.30
2017-07-09T23:50:02.298Z,28.40
2017-07-09T23:52:31.723Z,28.50
2017-07-09T23:55:01.099Z,28.30
2017-07-09T23:57:30.493Z,28.40
